createdAt,value
2017-05-10T00:00:24.614Z,1008.04
2017-05-10T00:01:24.344Z,1008.00
2017-05-10T00:02:13.036Z,1008.01
2017-05-10T00:03:12.534Z,1008.03
2017-05-10T00:04:13.511Z,1008.02
2017-05-10T00:05:08.086Z,1008.02
2017-05-10T00:06:02.717Z,1008.02
2017-05-10T00:06:57.039Z,1007.96
2017-05-10T00:07:56.570Z,1007.94
2017-05-10T00:08:50.604Z,1007.89
2017-05-10T00:09:50.881Z,1007.92
2017-05-10T00:10:45.428Z,1007.91
2017-05-10T00:11:44.941Z,1007.93
2017-05-10T00:12:39.859Z,1007.91
2017-05-10T00:13:34.420Z,1007.89
2017-05-10T00:14:33.925Z,1007.88
2017-05-10T00:15:27.889Z,1007.88
2017-05-10T00:16:22.817Z,1007.86
2017-05-10T00:17:22.346Z,1007.81
2017-05-10T00:18:16.286Z,1007.79
2017-05-10T00:19:17.258Z,1007.77
2017-05-10T00:20:16.738Z,1007.74
2017-05-10T00:21:16.681Z,1007.73
2017-05-10T00:22:10.642Z,1007.69
2017-05-10T00:23:05.894Z,1007.75
2017-05-10T00:24:05.108Z,1007.75
2017-05-10T00:25:05.029Z,1007.74
2017-05-10T00:26:06.049Z,1007.75
2017-05-10T00:27:05.490Z,1007.76
2017-05-10T00:28:05.463Z,1007.78
2017-05-10T00:29:11.389Z,1007.75
2017-05-10T00:30:05.344Z,1007.75
2017-05-10T00:31:11.239Z,1007.70
2017-05-10T00:32:06.245Z,1007.67
2017-05-10T00:33:05.728Z,1007.66
2017-05-10T00:33:59.725Z,1007.64
2017-05-10T00:35:00.637Z,1007.61
2017-05-10T00:36:00.190Z,1007.56
2017-05-10T00:36:55.117Z,1007.57
2017-05-10T00:37:54.643Z,1007.55
2017-05-10T00:38:43.634Z,1007.56
2017-05-10T00:39:43.089Z,1007.53
2017-05-10T00:40:37.025Z,1007.56
2017-05-10T00:41:30.983Z,1007.50
2017-05-10T00:42:24.933Z,1007.49
2017-05-10T00:43:24.928Z,1007.48
2017-05-10T00:44:13.849Z,1007.47
2017-05-10T00:45:08.368Z,1007.45
2017-05-10T00:46:08.330Z,1007.50
2017-05-10T00:47:07.856Z,1007.46
2017-05-10T00:48:01.794Z,1007.45
2017-05-10T00:49:01.725Z,1007.48
2017-05-10T00:49:56.687Z,1007.45
2017-05-10T00:50:56.234Z,1007.49
2017-05-10T00:51:51.119Z,1007.43
2017-05-10T00:52:50.657Z,1007.44
2017-05-10T00:53:52.063Z,1007.43
2017-05-10T00:54:46.124Z,1007.38
2017-05-10T00:55:40.600Z,1007.38
2017-05-10T00:56:35.140Z,1007.40
2017-05-10T00:57:34.715Z,1007.42
2017-05-10T00:58:29.635Z,1007.43
2017-05-10T00:59:29.126Z,1007.40
2017-05-10T01:00:29.090Z,1007.43
2017-05-10T01:01:24.018Z,1007.43
2017-05-10T01:02:23.529Z,1007.42
2017-05-10T01:03:17.539Z,1007.39
2017-05-10T01:04:12.473Z,1007.39
2017-05-10T01:05:05.967Z,1007.38
2017-05-10T01:06:00.929Z,1007.34
2017-05-10T01:07:00.446Z,1007.34
2017-05-10T01:07:54.399Z,1007.31
2017-05-10T01:08:54.342Z,1007.29
2017-05-10T01:09:49.254Z,1007.24
2017-05-10T01:10:48.889Z,1007.27
2017-05-10T01:11:43.743Z,1007.23
2017-05-10T01:12:43.248Z,1007.19
2017-05-10T01:13:44.244Z,1007.22
2017-05-10T01:14:38.749Z,1007.18
2017-05-10T01:15:33.246Z,1007.17
2017-05-10T01:16:28.148Z,1007.21
2017-05-10T01:17:27.245Z,1007.15
2017-05-10T01:18:22.258Z,1007.16
2017-05-10T01:19:21.751Z,1007.13
2017-05-10T01:20:21.713Z,1007.14
2017-05-10T01:21:15.633Z,1007.13
2017-05-10T01:22:09.563Z,1007.17
2017-05-10T01:23:03.517Z,1007.15
2017-05-10T01:23:57.476Z,1007.13
2017-05-10T01:24:57.438Z,1007.16
2017-05-10T01:25:51.808Z,1007.16
2017-05-10T01:26:52.337Z,1007.10
2017-05-10T01:27:51.846Z,1007.12
2017-05-10T01:28:46.786Z,1007.11
2017-05-10T01:29:52.758Z,1007.10
2017-05-10T01:30:52.401Z,1007.11
2017-05-10T01:31:52.283Z,1007.12
2017-05-10T01:32:47.149Z,1007.11
2017-05-10T01:33:41.640Z,1007.10
2017-05-10T01:34:36.154Z,1007.08
2017-05-10T01:35:35.667Z,1007.04
2017-05-10T01:36:30.591Z,1007.04
2017-05-10T01:37:30.170Z,1007.03
2017-05-10T01:38:30.130Z,1007.03
2017-05-10T01:39:24.036Z,1006.98
2017-05-10T01:40:24.045Z,1006.95
2017-05-10T01:41:24.049Z,1007.00
2017-05-10T01:42:17.922Z,1006.98
2017-05-10T01:43:17.835Z,1006.97
2017-05-10T01:44:12.769Z,1006.95
2017-05-10T01:45:07.287Z,1006.94
2017-05-10T01:46:01.812Z,1006.91
2017-05-10T01:47:01.361Z,1006.92
2017-05-10T01:47:55.320Z,1006.87
2017-05-10T01:48:55.200Z,1006.86
2017-05-10T01:49:50.151Z,1006.86
2017-05-10T01:50:50.696Z,1006.82
2017-05-10T01:51:50.205Z,1006.84
2017-05-10T01:52:39.160Z,1006.83
2017-05-10T01:53:38.688Z,1006.83
2017-05-10T01:54:32.645Z,1006.81
2017-05-10T01:55:26.552Z,1006.80
2017-05-10T01:56:20.530Z,1006.80
2017-05-10T01:57:15.425Z,1006.77
2017-05-10T01:58:20.964Z,1006.77
2017-05-10T01:59:14.956Z,1006.73
2017-05-10T02:00:09.886Z,1006.74
2017-05-10T02:01:04.411Z,1006.72
2017-05-10T02:01:58.935Z,1006.72
2017-05-10T02:02:58.414Z,1006.77
2017-05-10T02:03:58.335Z,1006.72
2017-05-10T02:04:52.429Z,1006.72
2017-05-10T02:05:46.542Z,1006.72
2017-05-10T02:06:46.163Z,1006.70
2017-05-10T02:07:40.199Z,1006.66
2017-05-10T02:08:41.101Z,1006.67
2017-05-10T02:09:40.653Z,1006.65
2017-05-10T02:10:29.561Z,1006.63
2017-05-10T02:11:35.059Z,1006.63
2017-05-10T02:12:35.041Z,1006.61
2017-05-10T02:13:28.952Z,1006.59
2017-05-10T02:14:17.956Z,1006.61
2017-05-10T02:15:12.438Z,1006.62
2017-05-10T02:16:12.418Z,1006.60
2017-05-10T02:17:11.919Z,1006.59
2017-05-10T02:18:06.839Z,1006.62
2017-05-10T02:19:06.367Z,1006.62
2017-05-10T02:20:00.327Z,1006.60
2017-05-10T02:20:55.237Z,1006.61
2017-05-10T02:21:48.830Z,1006.60
2017-05-10T02:22:43.709Z,1006.56
2017-05-10T02:23:43.221Z,1006.56
2017-05-10T02:24:38.156Z,1006.57
2017-05-10T02:25:43.911Z,1006.57
2017-05-10T02:26:38.655Z,1006.54
2017-05-10T02:27:33.189Z,1006.54
2017-05-10T02:28:27.661Z,1006.53
2017-05-10T02:29:27.201Z,1006.52
2017-05-10T02:30:21.142Z,1006.52
2017-05-10T02:31:22.045Z,1006.51
2017-05-10T02:32:21.599Z,1006.48
2017-05-10T02:33:21.563Z,1006.48
2017-05-10T02:34:21.423Z,1006.47
2017-05-10T02:35:16.406Z,1006.45
2017-05-10T02:36:15.956Z,1006.41
2017-05-10T02:37:04.904Z,1006.40
2017-05-10T02:38:04.392Z,1006.41
2017-05-10T02:39:04.428Z,1006.38
2017-05-10T02:39:59.283Z,1006.38
2017-05-10T02:41:04.848Z,1006.37
2017-05-10T02:41:58.759Z,1006.33
2017-05-10T02:42:58.714Z,1006.34
2017-05-10T02:43:47.674Z,1006.34
2017-05-10T02:44:42.288Z,1006.32
2017-05-10T02:45:41.648Z,1006.32
2017-05-10T02:46:35.555Z,1006.32
2017-05-10T02:47:29.600Z,1006.34
2017-05-10T02:48:24.527Z,1006.32
2017-05-10T02:49:19.020Z,1006.27
2017-05-10T02:50:13.564Z,1006.30
2017-05-10T02:51:13.419Z,1006.25
2017-05-10T02:52:07.087Z,1006.26
2017-05-10T02:53:06.955Z,1006.24
2017-05-10T02:54:06.914Z,1006.26
2017-05-10T02:55:06.853Z,1006.24
2017-05-10T02:56:06.932Z,1006.22
2017-05-10T02:57:06.804Z,1006.24
2017-05-10T02:58:00.714Z,1006.25
2017-05-10T02:58:55.661Z,1006.21
2017-05-10T02:59:55.130Z,1006.20
2017-05-10T03:00:55.093Z,1006.19
2017-05-10T03:01:50.043Z,1006.17
2017-05-10T03:02:44.531Z,1006.15
2017-05-10T03:03:39.050Z,1006.15
2017-05-10T03:04:38.635Z,1006.13
2017-05-10T03:05:32.572Z,1006.12
2017-05-10T03:06:32.484Z,1006.09
2017-05-10T03:07:32.421Z,1006.07
2017-05-10T03:08:32.377Z,1006.04
2017-05-10T03:09:26.341Z,1006.09
2017-05-10T03:10:26.237Z,1006.05
2017-05-10T03:11:26.241Z,1006.03
2017-05-10T03:12:26.156Z,1006.03
2017-05-10T03:13:20.114Z,1006.00
2017-05-10T03:14:14.046Z,1006.03
2017-05-10T03:15:09.036Z,1005.97
2017-05-10T03:16:08.521Z,1005.97
2017-05-10T03:17:03.436Z,1005.98
2017-05-10T03:18:02.969Z,1005.95
2017-05-10T03:19:02.956Z,1005.95
2017-05-10T03:19:56.861Z,1005.96
2017-05-10T03:20:56.823Z,1005.96
2017-05-10T03:21:51.736Z,1005.96
2017-05-10T03:22:51.304Z,1005.93
2017-05-10T03:23:46.210Z,1005.92
2017-05-10T03:24:45.724Z,1005.97
2017-05-10T03:25:46.124Z,1005.94
2017-05-10T03:26:39.635Z,1005.91
2017-05-10T03:27:33.609Z,1005.93
2017-05-10T03:28:27.506Z,1005.91
2017-05-10T03:29:16.503Z,1005.95
2017-05-10T03:30:11.061Z,1005.88
2017-05-10T03:31:10.514Z,1005.91
2017-05-10T03:32:04.513Z,1005.90
2017-05-10T03:33:04.459Z,1005.93
2017-05-10T03:33:58.351Z,1005.92
2017-05-10T03:34:52.354Z,1005.91
2017-05-10T03:35:41.250Z,1005.86
2017-05-10T03:36:35.809Z,1005.83
2017-05-10T03:37:35.293Z,1005.87
2017-05-10T03:38:35.180Z,1005.85
2017-05-10T03:39:30.214Z,1005.83
2017-05-10T03:40:35.674Z,1005.84
2017-05-10T03:41:29.617Z,1005.81
2017-05-10T03:42:29.578Z,1005.83
2017-05-10T03:43:18.538Z,1005.79
2017-05-10T03:44:13.046Z,1005.77
2017-05-10T03:45:12.543Z,1005.80
2017-05-10T03:46:13.495Z,1005.74
2017-05-10T03:47:08.037Z,1005.79
2017-05-10T03:48:02.550Z,1005.77
2017-05-10T03:49:02.129Z,1005.77
2017-05-10T03:49:56.306Z,1005.75
2017-05-10T03:50:50.164Z,1005.73
2017-05-10T03:51:43.957Z,1005.69
2017-05-10T03:52:44.848Z,1005.70
2017-05-10T03:53:44.348Z,1005.68
2017-05-10T03:54:38.305Z,1005.69
2017-05-10T03:55:38.257Z,1005.69
2017-05-10T03:56:32.169Z,1005.68
2017-05-10T03:57:32.171Z,1005.74
2017-05-10T03:58:27.124Z,1005.73
2017-05-10T03:59:26.577Z,1005.70
2017-05-10T04:00:21.504Z,1005.67
2017-05-10T04:01:21.066Z,1005.69
2017-05-10T04:02:15.036Z,1005.67
2017-05-10T04:03:09.955Z,1005.68
2017-05-10T04:04:09.516Z,1005.69
2017-05-10T04:05:04.427Z,1005.68
2017-05-10T04:06:03.922Z,1005.69
2017-05-10T04:06:57.861Z,1005.68
2017-05-10T04:07:51.822Z,1005.65
2017-05-10T04:08:45.813Z,1005.66
2017-05-10T04:09:40.732Z,1005.67
2017-05-10T04:10:46.448Z,1005.65
2017-05-10T04:11:40.161Z,1005.66
2017-05-10T04:12:40.154Z,1005.64
2017-05-10T04:13:34.079Z,1005.63
2017-05-10T04:14:29.041Z,1005.63
2017-05-10T04:15:22.545Z,1005.63
2017-05-10T04:16:17.589Z,1005.66
2017-05-10T04:17:17.137Z,1005.63
2017-05-10T04:18:11.936Z,1005.65
2017-05-10T04:19:11.490Z,1005.66
2017-05-10T04:20:05.432Z,1005.65
2017-05-10T04:21:06.531Z,1005.67
2017-05-10T04:22:05.840Z,1005.68
2017-05-10T04:22:59.847Z,1005.67
2017-05-10T04:23:47.807Z,1005.64
2017-05-10T04:24:36.726Z,1005.63
2017-05-10T04:25:24.310Z,1005.65
2017-05-10T04:26:07.289Z,1005.67
2017-05-10T04:26:54.763Z,1005.65
2017-05-10T04:27:42.733Z,1005.62
2017-05-10T04:28:30.677Z,1005.65
2017-05-10T04:29:19.632Z,1005.68
2017-05-10T04:30:07.146Z,1005.65
2017-05-10T04:30:55.072Z,1005.67
2017-05-10T04:31:38.052Z,1005.65
2017-05-10T04:32:25.559Z,1005.65
2017-05-10T04:33:13.521Z,1005.63
2017-05-10T04:33:56.877Z,1005.62
2017-05-10T04:34:44.069Z,1005.65
2017-05-10T04:35:26.991Z,1005.68
2017-05-10T04:36:14.535Z,1005.66
2017-05-10T04:37:03.535Z,1005.69
2017-05-10T04:37:51.009Z,1005.69
2017-05-10T04:38:38.968Z,1005.72
2017-05-10T04:39:27.011Z,1005.70
2017-05-10T04:40:15.838Z,1005.71
2017-05-10T04:41:03.361Z,1005.68
2017-05-10T04:41:51.326Z,1005.69
2017-05-10T04:42:39.338Z,1005.70
2017-05-10T04:43:28.257Z,1005.70
2017-05-10T04:44:15.753Z,1005.69
2017-05-10T04:45:03.720Z,1005.74
2017-05-10T04:45:46.731Z,1005.73
2017-05-10T04:46:34.259Z,1005.76
2017-05-10T04:47:22.147Z,1005.75
2017-05-10T04:48:05.151Z,1005.72
2017-05-10T04:48:52.673Z,1005.77
2017-05-10T04:49:41.608Z,1005.77
2017-05-10T04:50:29.126Z,1005.78
2017-05-10T04:51:17.111Z,1005.79
2017-05-10T04:52:05.038Z,1005.79
2017-05-10T04:52:48.033Z,1005.80
2017-05-10T04:53:35.525Z,1005.79
2017-05-10T04:54:24.512Z,1005.77
2017-05-10T04:55:12.016Z,1005.80
2017-05-10T04:55:54.912Z,1005.79
2017-05-10T04:56:42.527Z,1005.77
2017-05-10T04:57:30.437Z,1005.78
2017-05-10T04:58:18.441Z,1005.80
2017-05-10T04:59:07.353Z,1005.76
2017-05-10T04:59:54.872Z,1005.79
2017-05-10T05:00:37.847Z,1005.79
2017-05-10T05:01:25.354Z,1005.83
2017-05-10T05:02:13.316Z,1005.81
2017-05-10T05:03:01.328Z,1005.82
2017-05-10T05:03:50.261Z,1005.81
2017-05-10T05:04:37.920Z,1005.82
2017-05-10T05:05:26.065Z,1005.81
2017-05-10T05:06:13.745Z,1005.84
2017-05-10T05:07:02.761Z,1005.82
2017-05-10T05:07:50.318Z,1005.78
2017-05-10T05:08:33.349Z,1005.78
2017-05-10T05:09:20.710Z,1005.81
2017-05-10T05:10:03.694Z,1005.77
2017-05-10T05:10:51.608Z,1005.78
2017-05-10T05:11:39.415Z,1005.77
2017-05-10T05:12:22.419Z,1005.82
2017-05-10T05:13:09.955Z,1005.83
2017-05-10T05:13:52.987Z,1005.80
2017-05-10T05:14:40.505Z,1005.82
2017-05-10T05:15:28.466Z,1005.87
2017-05-10T05:16:11.406Z,1005.85
2017-05-10T05:16:58.902Z,1005.83
2017-05-10T05:17:46.549Z,1005.86
2017-05-10T05:18:29.448Z,1005.85
2017-05-10T05:19:17.154Z,1005.88
2017-05-10T05:20:00.037Z,1005.85
2017-05-10T05:20:47.533Z,1005.83
2017-05-10T05:21:36.843Z,1005.83
2017-05-10T05:22:24.099Z,1005.82
2017-05-10T05:23:06.912Z,1005.83
2017-05-10T05:24:01.856Z,1005.82
2017-05-10T05:24:48.996Z,1005.88
2017-05-10T05:25:43.038Z,1005.84
2017-05-10T05:26:31.332Z,1005.81
2017-05-10T05:27:19.322Z,1005.83
2017-05-10T05:28:06.934Z,1005.83
2017-05-10T05:28:54.821Z,1005.85
2017-05-10T05:29:50.185Z,1005.81
2017-05-10T05:30:49.786Z,1005.84
2017-05-10T05:31:43.562Z,1005.83
2017-05-10T05:32:37.514Z,1005.83
2017-05-10T05:33:25.550Z,1005.84
2017-05-10T05:34:08.187Z,1005.86
2017-05-10T05:35:02.664Z,1005.81
2017-05-10T05:35:57.339Z,1005.85
2017-05-10T05:36:52.086Z,1005.82
2017-05-10T05:37:51.483Z,1005.85
2017-05-10T05:38:46.428Z,1005.82
2017-05-10T05:39:46.082Z,1005.79
2017-05-10T05:40:40.033Z,1005.85
2017-05-10T05:41:28.030Z,1005.85
2017-05-10T05:42:10.605Z,1005.85
2017-05-10T05:42:58.350Z,1005.83
2017-05-10T05:43:47.361Z,1005.83
2017-05-10T05:44:40.846Z,1005.83
2017-05-10T05:45:30.097Z,1005.80
2017-05-10T05:46:23.605Z,1005.81
2017-05-10T05:47:18.432Z,1005.83
2017-05-10T05:48:18.992Z,1005.84
2017-05-10T05:49:18.352Z,1005.84
2017-05-10T05:50:01.237Z,1005.80
2017-05-10T05:50:48.946Z,1005.77
2017-05-10T05:51:43.019Z,1005.79
2017-05-10T05:52:31.974Z,1005.76
2017-05-10T05:53:20.042Z,1005.72
2017-05-10T05:54:07.978Z,1005.70
2017-05-10T05:54:56.985Z,1005.69
2017-05-10T05:55:44.202Z,1005.74
2017-05-10T05:56:44.208Z,1005.72
2017-05-10T05:57:39.036Z,1005.70
2017-05-10T05:58:27.777Z,1005.70
2017-05-10T05:59:21.048Z,1005.65
2017-05-10T06:00:10.284Z,1005.67
2017-05-10T06:01:10.111Z,1005.66
2017-05-10T06:02:03.906Z,1005.62
2017-05-10T06:02:52.693Z,1005.65
2017-05-10T06:03:46.121Z,1005.64
2017-05-10T06:04:40.045Z,1005.64
2017-05-10T06:05:40.032Z,1005.64
2017-05-10T06:06:35.239Z,1005.59
2017-05-10T06:07:29.415Z,1005.58
2017-05-10T06:08:34.937Z,1005.58
2017-05-10T06:09:30.286Z,1005.57
2017-05-10T06:10:18.803Z,1005.56
2017-05-10T06:11:12.200Z,1005.55
2017-05-10T06:11:59.889Z,1005.58
2017-05-10T06:12:54.275Z,1005.55
2017-05-10T06:13:47.853Z,1005.59
2017-05-10T06:14:43.111Z,1005.53
2017-05-10T06:15:31.603Z,1005.50
2017-05-10T06:16:26.240Z,1005.50
2017-05-10T06:17:20.682Z,1005.49
2017-05-10T06:18:13.852Z,1005.47
2017-05-10T06:19:02.265Z,1005.46
2017-05-10T06:19:57.134Z,1005.43
2017-05-10T06:20:51.826Z,1005.45
2017-05-10T06:21:38.938Z,1005.46
2017-05-10T06:22:26.865Z,1005.44
2017-05-10T06:23:15.819Z,1005.42
2017-05-10T06:24:09.368Z,1005.43
2017-05-10T06:24:57.455Z,1005.44
2017-05-10T06:25:52.774Z,1005.51
2017-05-10T06:26:46.784Z,1005.46
2017-05-10T06:27:40.362Z,1005.46
2017-05-10T06:28:40.339Z,1005.48
2017-05-10T06:29:28.352Z,1005.46
2017-05-10T06:30:29.237Z,1005.47
2017-05-10T06:31:18.078Z,1005.46
2017-05-10T06:32:11.678Z,1005.47
2017-05-10T06:33:11.502Z,1005.47
2017-05-10T06:34:06.216Z,1005.45
2017-05-10T06:35:06.094Z,1005.51
2017-05-10T06:35:59.753Z,1005.46
2017-05-10T06:36:53.727Z,1005.51
2017-05-10T06:37:42.857Z,1005.51
2017-05-10T06:38:42.265Z,1005.49
2017-05-10T06:39:42.172Z,1005.46
2017-05-10T06:40:31.307Z,1005.48
2017-05-10T06:41:30.950Z,1005.40
2017-05-10T06:42:19.881Z,1005.40
2017-05-10T06:43:14.385Z,1005.44
2017-05-10T06:44:07.929Z,1005.44
2017-05-10T06:45:02.644Z,1005.43
2017-05-10T06:45:56.643Z,1005.44
2017-05-10T06:46:51.423Z,1005.44
2017-05-10T06:47:45.926Z,1005.40
2017-05-10T06:48:45.237Z,1005.42
2017-05-10T06:49:40.355Z,1005.42
2017-05-10T06:50:39.718Z,1005.42
2017-05-10T06:51:34.028Z,1005.44
2017-05-10T06:52:28.888Z,1005.43
2017-05-10T06:53:28.488Z,1005.44
2017-05-10T06:54:17.446Z,1005.43
2017-05-10T06:55:16.936Z,1005.40
2017-05-10T06:56:10.946Z,1005.38
2017-05-10T06:56:59.942Z,1005.38
2017-05-10T06:57:47.430Z,1005.36
2017-05-10T06:58:30.402Z,1005.36
2017-05-10T06:59:24.982Z,1005.29
2017-05-10T07:00:13.469Z,1005.28
2017-05-10T07:01:07.032Z,1005.31
2017-05-10T07:02:01.296Z,1005.30
2017-05-10T07:02:43.965Z,1005.25
2017-05-10T07:03:44.472Z,1005.25
2017-05-10T07:04:45.013Z,1005.25
2017-05-10T07:05:44.635Z,1005.25
2017-05-10T07:06:32.528Z,1005.23
2017-05-10T07:07:15.653Z,1005.26
2017-05-10T07:08:08.708Z,1005.26
2017-05-10T07:09:08.720Z,1005.25
2017-05-10T07:10:03.791Z,1005.23
2017-05-10T07:11:03.359Z,1005.21
2017-05-10T07:11:51.169Z,1005.24
2017-05-10T07:12:46.148Z,1005.25
2017-05-10T07:13:39.645Z,1005.19
2017-05-10T07:14:33.861Z,1005.23
2017-05-10T07:15:22.812Z,1005.24
2017-05-10T07:16:17.451Z,1005.20
2017-05-10T07:17:11.661Z,1005.19
2017-05-10T07:18:00.518Z,1005.20
2017-05-10T07:18:54.100Z,1005.22
2017-05-10T07:19:42.746Z,1005.20
2017-05-10T07:20:37.628Z,1005.19
2017-05-10T07:21:32.102Z,1005.15
2017-05-10T07:22:25.526Z,1005.17
2017-05-10T07:23:14.351Z,1005.17
2017-05-10T07:24:02.841Z,1005.23
2017-05-10T07:24:57.505Z,1005.24
2017-05-10T07:25:45.842Z,1005.16
2017-05-10T07:26:45.874Z,1005.20
2017-05-10T07:27:40.702Z,1005.22
2017-05-10T07:28:34.896Z,1005.25
2017-05-10T07:29:29.771Z,1005.22
2017-05-10T07:30:23.974Z,1005.14
2017-05-10T07:31:18.514Z,1005.15
2017-05-10T07:32:13.416Z,1005.21
2017-05-10T07:33:07.603Z,1005.22
2017-05-10T07:34:02.179Z,1005.19
2017-05-10T07:34:56.070Z,1005.23
2017-05-10T07:35:50.894Z,1005.25
2017-05-10T07:36:44.523Z,1005.29
2017-05-10T07:37:33.544Z,1005.24
2017-05-10T07:38:34.111Z,1005.24
2017-05-10T07:39:33.659Z,1005.26
2017-05-10T07:40:22.580Z,1005.22
2017-05-10T07:41:16.114Z,1005.19
2017-05-10T07:42:04.041Z,1005.21
2017-05-10T07:42:52.036Z,1005.22
2017-05-10T07:43:51.955Z,1005.21
2017-05-10T07:44:47.228Z,1005.19
2017-05-10T07:45:35.524Z,1005.21
2017-05-10T07:46:24.186Z,1005.25
2017-05-10T07:47:23.634Z,1005.21
2017-05-10T07:48:12.615Z,1005.16
2017-05-10T07:49:07.112Z,1005.11
2017-05-10T07:50:02.070Z,1005.14
2017-05-10T07:50:56.199Z,1005.11
2017-05-10T07:51:50.648Z,1005.14
2017-05-10T07:52:46.261Z,1005.11
2017-05-10T07:53:32.270Z,1005.13
2017-05-10T07:54:26.272Z,1005.09
2017-05-10T07:55:15.180Z,1005.16
2017-05-10T07:56:08.668Z,1005.11
2017-05-10T07:57:08.643Z,1005.09
2017-05-10T07:58:02.623Z,1005.12
2017-05-10T07:58:56.655Z,1005.13
2017-05-10T07:59:50.643Z,1005.10
2017-05-10T08:00:39.549Z,1005.06
2017-05-10T08:01:33.069Z,1005.06
2017-05-10T08:02:33.131Z,1005.07
2017-05-10T08:03:21.206Z,1005.04
2017-05-10T08:04:15.076Z,1005.00
2017-05-10T08:05:02.931Z,1005.02
2017-05-10T08:05:45.936Z,1005.02
2017-05-10T08:06:39.182Z,1005.05
2017-05-10T08:07:33.510Z,1005.02
2017-05-10T08:08:22.527Z,1005.01
2017-05-10T08:09:15.958Z,1005.04
2017-05-10T08:10:11.020Z,1005.06
2017-05-10T08:11:04.515Z,1005.02
2017-05-10T08:11:59.511Z,1005.05
2017-05-10T08:12:59.021Z,1005.04
2017-05-10T08:13:52.994Z,1005.10
2017-05-10T08:14:41.944Z,1005.09
2017-05-10T08:15:30.574Z,1005.11
2017-05-10T08:16:18.131Z,1005.09
2017-05-10T08:17:12.020Z,1005.02
2017-05-10T08:18:00.986Z,1005.03
2017-05-10T08:18:54.569Z,1005.00
2017-05-10T08:19:48.530Z,1004.99
2017-05-10T08:20:37.523Z,1005.06
2017-05-10T08:21:32.108Z,1005.05
2017-05-10T08:22:26.693Z,1005.04
2017-05-10T08:23:14.130Z,1005.03
2017-05-10T08:24:08.145Z,1005.06
2017-05-10T08:24:56.111Z,1005.02
2017-05-10T08:25:44.098Z,1005.07
2017-05-10T08:26:38.065Z,1005.04
2017-05-10T08:27:26.064Z,1005.06
2017-05-10T08:28:09.025Z,1005.01
2017-05-10T08:29:02.509Z,1004.94
2017-05-10T08:29:50.594Z,1005.00
2017-05-10T08:30:44.529Z,1005.03
2017-05-10T08:31:32.392Z,1005.01
2017-05-10T08:32:26.294Z,1005.04
2017-05-10T08:33:21.052Z,1005.05
2017-05-10T08:34:08.710Z,1005.00
2017-05-10T08:34:51.920Z,1004.95
2017-05-10T08:35:45.146Z,1004.96
2017-05-10T08:36:28.560Z,1004.96
2017-05-10T08:37:29.202Z,1004.95
2017-05-10T08:38:34.248Z,1004.99
2017-05-10T08:39:23.174Z,1004.98
2017-05-10T08:40:23.038Z,1004.96
2017-05-10T08:41:16.869Z,1004.99
2017-05-10T08:42:10.999Z,1004.99
2017-05-10T08:42:58.925Z,1005.09
2017-05-10T08:43:47.866Z,1005.15
2017-05-10T08:44:42.456Z,1005.10
2017-05-10T08:45:36.867Z,1005.13
2017-05-10T08:46:24.247Z,1005.09
2017-05-10T08:47:13.404Z,1004.93
2017-05-10T08:48:08.144Z,1005.03
2017-05-10T08:49:01.400Z,1004.98
2017-05-10T08:50:01.618Z,1004.93
2017-05-10T08:50:55.724Z,1004.87
2017-05-10T08:51:38.170Z,1004.79
2017-05-10T08:52:33.077Z,1004.66
2017-05-10T08:53:27.956Z,1004.66
2017-05-10T08:54:21.219Z,1004.70
2017-05-10T08:55:09.220Z,1004.80
2017-05-10T08:56:04.083Z,1004.69
2017-05-10T08:56:51.445Z,1004.73
2017-05-10T08:57:40.268Z,1004.76
2017-05-10T08:58:40.086Z,1004.79
2017-05-10T08:59:35.232Z,1005.09
2017-05-10T09:00:23.503Z,1004.97
2017-05-10T09:01:16.886Z,1004.92
2017-05-10T09:02:11.262Z,1004.91
2017-05-10T09:03:10.925Z,1004.94
2017-05-10T09:03:59.206Z,1004.94
2017-05-10T09:04:47.086Z,1005.12
2017-05-10T09:05:41.124Z,1005.11
2017-05-10T09:06:28.960Z,1004.97
2017-05-10T09:07:23.942Z,1005.27
2017-05-10T09:08:17.474Z,1005.12
2017-05-10T09:09:12.454Z,1005.02
2017-05-10T09:10:11.762Z,1004.96
2017-05-10T09:11:07.104Z,1004.87
2017-05-10T09:12:06.642Z,1004.89
2017-05-10T09:12:49.560Z,1005.04
2017-05-10T09:13:38.087Z,1005.08
2017-05-10T09:14:26.631Z,1004.98
2017-05-10T09:15:20.176Z,1005.01
2017-05-10T09:16:14.224Z,1004.90
2017-05-10T09:17:08.235Z,1005.05
2017-05-10T09:17:56.203Z,1004.79
2017-05-10T09:18:51.194Z,1004.79
2017-05-10T09:19:44.696Z,1004.87
2017-05-10T09:20:33.665Z,1004.88
2017-05-10T09:21:22.181Z,1004.75
2017-05-10T09:22:10.768Z,1004.69
2017-05-10T09:23:05.302Z,1004.70
2017-05-10T09:24:04.823Z,1004.73
2017-05-10T09:24:48.079Z,1004.97
2017-05-10T09:25:41.334Z,1004.73
2017-05-10T09:26:35.310Z,1004.72
2017-05-10T09:27:30.242Z,1004.68
2017-05-10T09:28:18.818Z,1004.72
2017-05-10T09:29:07.342Z,1004.70
2017-05-10T09:30:02.111Z,1004.71
2017-05-10T09:30:56.505Z,1004.59
2017-05-10T09:31:50.998Z,1004.59
2017-05-10T09:32:45.562Z,1004.68
2017-05-10T09:33:39.041Z,1004.53
2017-05-10T09:34:33.038Z,1004.58
2017-05-10T09:35:21.301Z,1004.67
2017-05-10T09:36:20.997Z,1004.62
2017-05-10T09:37:14.964Z,1004.61
2017-05-10T09:38:09.897Z,1004.66
2017-05-10T09:39:03.409Z,1004.69
2017-05-10T09:39:57.842Z,1004.73
2017-05-10T09:40:45.011Z,1004.78
2017-05-10T09:41:39.330Z,1004.73
2017-05-10T09:42:32.993Z,1004.88
2017-05-10T09:43:33.167Z,1004.69
2017-05-10T09:44:22.279Z,1004.76
2017-05-10T09:45:21.623Z,1004.74
2017-05-10T09:46:10.443Z,1005.01
2017-05-10T09:47:03.988Z,1005.03
2017-05-10T09:48:03.995Z,1004.91
2017-05-10T09:48:53.226Z,1004.92
2017-05-10T09:49:53.444Z,1004.82
2017-05-10T09:50:42.224Z,1004.68
2017-05-10T09:51:36.549Z,1004.58
2017-05-10T09:52:30.223Z,1004.62
2017-05-10T09:53:30.192Z,1004.56
2017-05-10T09:54:24.178Z,1004.61
2017-05-10T09:55:17.939Z,1004.60
2017-05-10T09:56:12.063Z,1004.59
2017-05-10T09:57:01.222Z,1004.64
2017-05-10T09:57:55.743Z,1004.71
2017-05-10T09:58:50.399Z,1004.70
2017-05-10T09:59:49.741Z,1004.72
2017-05-10T10:00:43.856Z,1004.72
2017-05-10T10:01:38.828Z,1004.70
2017-05-10T10:02:38.263Z,1004.62
2017-05-10T10:03:32.299Z,1004.60
2017-05-10T10:04:26.452Z,1004.51
2017-05-10T10:05:14.282Z,1004.49
2017-05-10T10:06:09.199Z,1004.47
2017-05-10T10:07:02.832Z,1004.54
2017-05-10T10:07:57.832Z,1004.73
2017-05-10T10:08:51.248Z,1004.70
2017-05-10T10:09:45.180Z,1004.57
2017-05-10T10:10:40.254Z,1004.42
2017-05-10T10:11:28.735Z,1004.32
2017-05-10T10:12:23.372Z,1004.32
2017-05-10T10:13:16.869Z,1004.41
2017-05-10T10:14:04.874Z,1004.44
2017-05-10T10:14:52.853Z,1004.50
2017-05-10T10:15:47.764Z,1004.56
2017-05-10T10:16:47.314Z,1004.64
2017-05-10T10:17:36.265Z,1004.73
2017-05-10T10:18:36.098Z,1004.69
2017-05-10T10:19:30.864Z,1004.68
2017-05-10T10:20:25.359Z,1004.68
2017-05-10T10:21:19.867Z,1004.64
2017-05-10T10:22:13.393Z,1004.71
2017-05-10T10:23:08.328Z,1004.65
2017-05-10T10:24:07.954Z,1004.66
2017-05-10T10:25:01.876Z,1004.66
2017-05-10T10:25:50.808Z,1004.68
2017-05-10T10:26:39.407Z,1004.65
2017-05-10T10:27:38.949Z,1004.77
2017-05-10T10:28:32.910Z,1004.90
2017-05-10T10:29:27.941Z,1004.83
2017-05-10T10:30:22.422Z,1004.73
2017-05-10T10:31:15.950Z,1004.58
2017-05-10T10:32:09.988Z,1004.53
2017-05-10T10:33:03.973Z,1004.48
2017-05-10T10:33:58.923Z,1004.47
2017-05-10T10:34:52.552Z,1004.28
2017-05-10T10:35:47.442Z,1004.19
2017-05-10T10:36:46.977Z,1004.19
2017-05-10T10:37:34.939Z,1004.17
2017-05-10T10:38:28.984Z,1004.29
2017-05-10T10:39:16.921Z,1004.38
2017-05-10T10:40:04.909Z,1004.42
2017-05-10T10:41:04.851Z,1004.62
2017-05-10T10:41:58.857Z,1004.66
2017-05-10T10:42:53.856Z,1004.47
2017-05-10T10:43:47.332Z,1004.52
2017-05-10T10:44:42.365Z,1004.46
2017-05-10T10:45:41.891Z,1004.49
2017-05-10T10:46:35.868Z,1004.34
2017-05-10T10:47:24.898Z,1004.39
2017-05-10T10:48:19.385Z,1004.24
2017-05-10T10:49:07.970Z,1004.15
2017-05-10T10:50:02.519Z,1004.05
2017-05-10T10:51:02.002Z,1004.04